createdAt,value
2023-04-01T09:52:12.044Z,3.00
2023-04-01T09:54:59.608Z,-143.23
2023-04-01T09:57:54.524Z,-143.23
2023-04-01T10:00:57.712Z,-143.23
2023-04-01T10:04:02.296Z,-143.23
2023-04-01T10:06:53.938Z,-143.23
2023-04-01T10:10:08.676Z,-143.23
2023-04-01T10:13:00.586Z,-143.23
2023-04-01T10:15:53.286Z,-143.23
2023-04-01T10:18:48.481Z,-143.23
2023-04-01T10:22:54.185Z,-143.23
2023-04-01T10:26:59.098Z,-143.23
2023-04-01T10:30:58.870Z,-143.23
2023-04-01T10:34:47.066Z,-143.23
2023-04-01T10:38:36.741Z,-143.23
2023-04-01T10:41:53.273Z,-143.23
2023-04-01T10:45:06.448Z,-143.23
2023-04-01T10:48:45.467Z,-143.23
2023-04-01T10:51:19.880Z,-143.23
2023-04-01T10:54:21.226Z,-143.23
2023-04-01T10:56:56.820Z,-143.23
2023-04-01T10:59:46.478Z,-143.23
2023-04-01T11:02:46.830Z,-143.23
2023-04-01T11:05:47.973Z,-143.23
2023-04-01T11:08:51.568Z,-143.23
2023-04-01T11:12:03.760Z,-143.23
2023-04-01T11:15:11.821Z,-143.23
2023-04-01T11:18:16.973Z,3.00
2023-04-01T11:21:18.592Z,-143.23
2023-04-01T11:24:04.525Z,-143.23
2023-04-01T11:26:45.680Z,-143.23
2023-04-01T11:30:00.070Z,3.00
2023-04-01T11:32:46.758Z,3.00
2023-04-01T11:35:51.138Z,4.47
2023-04-01T11:38:33.281Z,4.47
2023-04-01T11:41:12.053Z,4.41
2023-04-01T11:43:48.259Z,4.41
2023-04-01T11:46:26.296Z,4.41
2023-04-01T11:49:06.510Z,4.27
2023-04-01T11:52:00.116Z,4.22
2023-04-01T11:54:48.636Z,4.62
2023-04-01T11:57:43.309Z,4.62
2023-04-01T12:00:28.126Z,4.62
2023-04-01T12:03:12.842Z,4.17
2023-04-01T12:05:49.509Z,4.42
2023-04-01T12:08:30.996Z,4.65
2023-04-01T12:11:07.607Z,4.81
2023-04-01T12:13:45.379Z,4.24
2023-04-01T12:16:28.280Z,4.58
2023-04-01T12:19:01.743Z,4.55
2023-04-01T12:21:40.762Z,4.68
2023-04-01T12:24:47.694Z,4.70
2023-04-01T12:27:44.083Z,4.47
2023-04-01T12:30:29.297Z,4.36
2023-04-01T12:33:16.979Z,4.12
2023-04-01T12:35:58.718Z,4.58
2023-04-01T12:38:38.102Z,4.72
2023-04-01T12:41:14.247Z,4.76
2023-04-01T12:44:07.843Z,4.70
2023-04-01T12:46:58.621Z,4.74
2023-04-01T12:49:57.673Z,4.87
2023-04-01T12:52:41.200Z,4.24
2023-04-01T12:55:37.263Z,4.39
2023-04-01T12:58:38.671Z,4.77
2023-04-01T13:01:29.567Z,4.43
2023-04-01T13:04:26.654Z,4.76
2023-04-01T13:07:08.527Z,4.63
2023-04-01T13:09:50.604Z,4.50
2023-04-01T13:12:42.728Z,4.56
2023-04-01T13:15:28.420Z,4.46
2023-04-01T13:18:03.557Z,4.47
2023-04-01T13:20:46.995Z,4.47
2023-04-01T13:23:32.390Z,4.31
2023-04-01T13:26:14.236Z,4.18
2023-04-01T13:28:49.565Z,4.44
2023-04-01T13:31:47.115Z,4.43
2023-04-01T13:34:26.229Z,4.21
2023-04-01T13:37:05.859Z,4.15
2023-04-01T13:39:59.002Z,4.37
2023-04-01T13:42:32.088Z,4.33
2023-04-01T13:45:11.369Z,4.50
2023-04-01T13:48:22.131Z,4.47
2023-04-01T13:51:31.524Z,4.70
2023-04-01T13:54:23.042Z,4.79
2023-04-01T13:57:09.381Z,4.70
2023-04-01T13:59:50.584Z,4.45
2023-04-01T14:02:44.668Z,4.44
2023-04-01T14:05:43.399Z,4.39
2023-04-01T14:08:22.452Z,5.03
2023-04-01T14:11:00.556Z,4.43
2023-04-01T14:13:38.692Z,4.96
2023-04-01T14:16:26.464Z,4.95
2023-04-01T14:19:12.651Z,4.88
2023-04-01T14:21:45.352Z,4.58
2023-04-01T14:24:51.801Z,4.54
2023-04-01T14:27:31.235Z,4.98
2023-04-01T14:30:13.165Z,5.45
2023-04-01T14:32:50.453Z,5.52
2023-04-01T14:35:30.376Z,5.65
2023-04-01T14:38:11.535Z,5.87
2023-04-01T14:40:56.119Z,5.53
2023-04-01T14:43:49.174Z,6.41
2023-04-01T14:46:33.125Z,6.41
2023-04-01T14:49:04.794Z,7.06
2023-04-01T14:51:38.254Z,6.31
2023-04-01T14:54:10.951Z,5.89
2023-04-01T14:56:44.180Z,6.11
2023-04-01T14:59:17.570Z,6.14
2023-04-01T15:01:57.645Z,5.67
2023-04-01T15:04:50.571Z,6.07
2023-04-01T15:07:38.287Z,6.21
2023-04-01T15:10:20.487Z,6.27
2023-04-01T15:12:56.651Z,5.88
2023-04-01T15:15:35.147Z,5.77
2023-04-01T15:18:11.233Z,5.75
2023-04-01T15:21:07.503Z,5.73
2023-04-01T15:23:48.379Z,6.07
2023-04-01T15:26:28.229Z,5.89
2023-04-01T15:29:12.310Z,5.80
2023-04-01T15:31:46.757Z,5.81
2023-04-01T15:34:28.394Z,6.00
2023-04-01T15:37:02.464Z,6.02
2023-04-01T15:39:47.212Z,5.90
2023-04-01T15:42:33.980Z,5.74
2023-04-01T15:45:16.242Z,5.60
2023-04-01T15:47:47.882Z,5.29
2023-04-01T15:51:06.432Z,5.75
2023-04-01T15:53:56.816Z,5.19
2023-04-01T15:56:40.762Z,5.42
2023-04-01T15:59:22.791Z,5.63
2023-04-01T16:01:59.431Z,5.27
2023-04-01T16:04:44.273Z,5.43
2023-04-01T16:07:26.539Z,5.25
2023-04-01T16:10:09.761Z,5.37
2023-04-01T16:12:53.289Z,5.17
2023-04-01T16:15:29.451Z,5.05
2023-04-01T16:18:23.262Z,5.41
2023-04-01T16:20:57.840Z,5.49
2023-04-01T16:23:32.125Z,5.26
2023-04-01T16:26:07.846Z,5.28
2023-04-01T16:28:42.269Z,5.06
2023-04-01T16:31:17.648Z,5.19
2023-04-01T16:33:53.124Z,5.12
2023-04-01T16:36:30.143Z,5.01
2023-04-01T16:39:13.997Z,4.69
2023-04-01T16:41:49.682Z,5.12
2023-04-01T16:44:24.328Z,4.96
2023-04-01T16:46:54.615Z,4.91
2023-04-01T16:49:31.545Z,4.89
2023-04-01T16:52:14.713Z,4.74
2023-04-01T16:54:48.269Z,4.67
2023-04-01T16:57:23.604Z,4.48
2023-04-01T17:00:03.062Z,4.72
2023-04-01T17:02:36.024Z,4.47
2023-04-01T17:05:07.906Z,4.59
2023-04-01T17:07:51.510Z,4.61
2023-04-01T17:10:35.934Z,4.57
2023-04-01T17:13:31.522Z,4.45
2023-04-01T17:16:14.900Z,4.43
2023-04-01T17:18:50.851Z,4.42
2023-04-01T17:21:23.232Z,4.42
2023-04-01T17:23:55.093Z,4.31
2023-04-01T17:26:32.421Z,4.37
2023-04-01T17:29:09.615Z,4.10
2023-04-01T17:31:48.084Z,4.15
2023-04-01T17:34:41.885Z,4.14
2023-04-01T17:37:33.261Z,4.16
2023-04-01T17:40:17.540Z,4.06
2023-04-01T17:42:54.224Z,4.02
2023-04-01T17:45:26.360Z,4.01
2023-04-01T17:48:10.393Z,3.71
2023-04-01T17:50:50.966Z,3.92
2023-04-01T17:53:32.408Z,3.74
2023-04-01T17:56:11.193Z,3.78
2023-04-01T17:58:47.419Z,3.89
2023-04-01T18:01:32.408Z,3.82
2023-04-01T18:04:12.514Z,3.69
2023-04-01T18:06:56.873Z,3.82
2023-04-01T18:09:37.444Z,3.84
2023-04-01T18:12:16.735Z,3.81
2023-04-01T18:14:59.512Z,3.30
2023-04-01T18:17:32.403Z,3.68
2023-04-01T18:20:38.002Z,3.66
2023-04-01T18:23:14.387Z,3.69
2023-04-01T18:25:46.736Z,3.63
2023-04-01T18:28:25.858Z,3.62
2023-04-01T18:30:58.083Z,3.48
2023-04-01T18:33:31.268Z,3.46
2023-04-01T18:36:15.489Z,3.49
2023-04-01T18:38:51.529Z,3.49
2023-04-01T18:41:28.318Z,3.46
2023-04-01T18:44:06.173Z,3.43
2023-04-01T18:46:41.769Z,3.42
2023-04-01T18:49:19.002Z,3.37
2023-04-01T18:51:54.784Z,3.39
2023-04-01T18:54:29.237Z,3.35
2023-04-01T18:57:06.553Z,3.29
2023-04-01T18:59:41.432Z,3.19
2023-04-01T19:02:22.745Z,3.17
2023-04-01T19:04:59.474Z,2.96
2023-04-01T19:07:44.722Z,3.15
2023-04-01T19:10:29.142Z,3.10
2023-04-01T19:13:15.770Z,3.12
2023-04-01T19:15:51.430Z,3.10
2023-04-01T19:18:48.912Z,3.12
2023-04-01T19:21:21.630Z,3.04
2023-04-01T19:24:14.677Z,3.07
2023-04-01T19:26:48.185Z,3.00
2023-04-01T19:29:32.357Z,3.16
2023-04-01T19:32:12.970Z,3.17
2023-04-01T19:34:51.826Z,3.22
2023-04-01T19:37:31.578Z,3.07
2023-04-01T19:40:19.007Z,3.20
2023-04-01T19:42:55.651Z,3.28
2023-04-01T19:45:36.495Z,3.26
2023-04-01T19:48:15.711Z,3.20
2023-04-01T19:50:53.159Z,3.20
2023-04-01T19:53:28.058Z,3.21
2023-04-01T19:56:09.037Z,3.08
2023-04-01T19:58:45.181Z,2.89
2023-04-01T20:01:20.962Z,3.04
2023-04-01T20:03:52.966Z,3.02
2023-04-01T20:06:28.176Z,3.04
2023-04-01T20:09:12.280Z,2.94
2023-04-01T20:11:56.062Z,2.99
2023-04-01T20:14:32.403Z,2.96
2023-04-01T20:17:20.755Z,2.95
2023-04-01T20:19:57.455Z,2.67
2023-04-01T20:22:36.697Z,2.87
2023-04-01T20:25:14.865Z,2.84
2023-04-01T20:27:51.335Z,2.82
2023-04-01T20:30:36.837Z,2.80
2023-04-01T20:33:19.744Z,2.78
2023-04-01T20:36:02.236Z,2.79
2023-04-01T20:39:05.838Z,2.63
2023-04-01T20:41:39.600Z,2.59
2023-04-01T20:44:13.143Z,2.53
2023-04-01T20:46:51.575Z,2.63
2023-04-01T20:49:40.341Z,2.63
2023-04-01T20:52:28.638Z,2.63
2023-04-01T20:55:32.765Z,2.72
2023-04-01T20:58:13.846Z,2.82
2023-04-01T21:00:56.126Z,2.73
2023-04-01T21:03:40.480Z,2.72
2023-04-01T21:06:37.815Z,2.65
2023-04-01T21:09:25.829Z,2.59
2023-04-01T21:12:03.513Z,2.50
2023-04-01T21:14:53.534Z,2.61
2023-04-01T21:17:40.837Z,2.58
2023-04-01T21:20:21.339Z,2.48
2023-04-01T21:23:13.213Z,2.52
2023-04-01T21:26:03.347Z,2.54
2023-04-01T21:28:37.428Z,2.39
2023-04-01T21:31:33.579Z,2.50
2023-04-01T21:34:36.274Z,2.26
2023-04-01T21:37:36.583Z,2.44
2023-04-01T21:40:27.978Z,2.38
2023-04-01T21:43:06.762Z,2.30
2023-04-01T21:45:54.173Z,2.20
2023-04-01T21:48:49.122Z,2.31
2023-04-01T21:51:45.956Z,2.27
2023-04-01T21:54:33.356Z,2.24
2023-04-01T21:57:46.828Z,2.34
2023-04-01T22:00:19.485Z,2.31
2023-04-01T22:03:40.943Z,2.31
2023-04-01T22:06:18.344Z,2.30
2023-04-01T22:09:01.227Z,2.31
2023-04-01T22:11:50.726Z,2.34
2023-04-01T22:14:27.420Z,2.36
2023-04-01T22:17:04.216Z,2.38
2023-04-01T22:19:42.309Z,2.37
2023-04-01T22:22:19.615Z,2.32
2023-04-01T22:24:59.093Z,2.26
2023-04-01T22:27:32.884Z,2.29
2023-04-01T22:30:17.547Z,2.42
2023-04-01T22:32:47.405Z,2.30
2023-04-01T22:35:27.919Z,2.32
2023-04-01T22:38:05.073Z,2.32
2023-04-01T22:40:43.530Z,2.27
2023-04-01T22:43:15.230Z,2.28
2023-04-01T22:46:03.381Z,2.28
2023-04-01T22:48:39.430Z,2.21
2023-04-01T22:51:15.169Z,2.22
2023-04-01T22:54:01.637Z,2.19
2023-04-01T22:56:33.506Z,2.18
2023-04-01T22:59:12.144Z,2.22
2023-04-01T23:01:46.937Z,2.21
2023-04-01T23:04:19.327Z,2.24
2023-04-01T23:06:53.462Z,2.26
2023-04-01T23:09:24.149Z,2.23
2023-04-01T23:11:55.322Z,2.01
2023-04-01T23:14:39.191Z,2.25
2023-04-01T23:17:18.495Z,2.22
2023-04-01T23:19:53.974Z,2.24
2023-04-01T23:22:29.919Z,2.22
2023-04-01T23:25:07.046Z,2.22
2023-04-01T23:27:41.532Z,2.17
2023-04-01T23:30:52.539Z,2.10
2023-04-01T23:33:29.187Z,2.09
2023-04-01T23:36:06.014Z,2.05
2023-04-01T23:38:36.705Z,2.03
2023-04-01T23:41:05.880Z,2.02
2023-04-01T23:43:38.513Z,2.01
2023-04-01T23:46:09.016Z,1.97
2023-04-01T23:48:42.340Z,1.88
2023-04-01T23:51:17.004Z,1.94
2023-04-01T23:53:48.166Z,1.86
2023-04-01T23:56:19.343Z,1.49
2023-04-01T23:58:53.382Z,1.79
